Home > Products > Valid Products > MTR

000
SAUS45 KPIH 040352
MTRSNT
METAR KSNT 040351Z AUTO VRB03KT M07/M16 A2992 RMK AO1 SLP151
T10721161





000
SAUS45 KPIH 040252
MTRSNT
METAR KSNT 040251Z AUTO 33005KT M06/M17 A2990 RMK AO1 SLP144
T10561172 53012





000
SAUS45 KPIH 040152
MTRSNT
METAR KSNT 040151Z AUTO 33005KT M04/M16 A2988 RMK AO1 SLP130
T10441161





000
SAUS45 KPIH 040052
MTRSNT
METAR KSNT 040051Z AUTO 32007KT M03/M17 A2986 RMK AO1 SLP115
T10281172





000
SAUS45 KPIH 040052
MTRSNT
METAR KSNT 040051Z AUTO 32007KT M03/M17 A2986 RMK AO1 SLP115
T10281172





000
SAUS45 KPIH 032352
MTRSNT
METAR KSNT 032351Z AUTO 32006KT M01/M16 A2985 RMK AO1 SLP107
T10111156 10000 21039 56001





000
SAUS45 KPIH 032352
MTRSNT
METAR KSNT 032351Z AUTO 32006KT M01/M16 A2985 RMK AO1 SLP107
T10111156 10000 21039 56001





000
SAUS45 KPIH 032252
MTRSNT
METAR KSNT 032251Z AUTO 36009KT M01/M15 A2986 RMK AO1 SLP107
T10061150





000
SAUS45 KPIH 032152
MTRSNT
METAR KSNT 032151Z AUTO VRB03KT M01/M14 A2985 RMK AO1 SLP098
T10061144





000
SAUS45 KPIH 032052
MTRSNT
METAR KSNT 032051Z AUTO VRB05KT M01/M16 A2986 RMK AO1 SLP105
T10111156 58004





000
SAUS45 KPIH 031952
MTRSNT
METAR KSNT 031951Z AUTO 34007KT M02/M15 A2987 RMK AO1 SLP109
T10221150





000
SAUS45 KPIH 031952
MTRSNT
METAR KSNT 031951Z AUTO 34007KT M02/M15 A2987 RMK AO1 SLP109
T10221150





000
SAUS45 KPIH 031852
MTRSNT
METAR KSNT 031851Z AUTO 35006KT M03/M16 A2988 RMK AO1 SLP112
T10281161





000
SAUS45 KPIH 031852
MTRSNT
METAR KSNT 031851Z AUTO 35006KT M03/M16 A2988 RMK AO1 SLP112
T10281161





000
SAUS45 KPIH 031752
MTRSNT
METAR KSNT 031751Z AUTO 34006KT M04/M16 A2987 RMK AO1 SLP113
T10391156 11039 21106 51013





000
SAUS45 KPIH 031752
MTRSNT
METAR KSNT 031751Z AUTO 34006KT M04/M16 A2987 RMK AO1 SLP113
T10391156 11039 21106 51013





000
SAUS45 KPIH 031652
MTRSNT
METAR KSNT 031651Z AUTO 33007KT M05/M14 A2987 RMK AO1 SLP112
T10501139





000
SAUS45 KPIH 031552
MTRSNT
METAR KSNT 031551Z AUTO 00000KT M07/M14 A2985 RMK AO1 SLP109
T10721139





000
SAUS45 KPIH 031452
MTRSNT
METAR KSNT 031451Z AUTO 00000KT M09/M14 A2983 RMK AO1 SLP106
T10941144 51012





000
SAUS45 KPIH 031352
MTRSNT
METAR KSNT 031351Z AUTO 00000KT M08/M14 A2982 RMK AO1 SLP099
T10831144





000
SAUS45 KPIH 031352
MTRSNT
METAR KSNT 031351Z AUTO 00000KT M08/M14 A2982 RMK AO1 SLP099
T10831144





000
SAUS45 KPIH 031252
MTRSNT
METAR KSNT 031251Z AUTO 32004KT M06/M14 A2980 RMK AO1 SLP085
T10611144





000
SAUS45 KPIH 031252
MTRSNT
METAR KSNT 031251Z AUTO 32004KT M06/M14 A2980 RMK AO1 SLP085
T10611144





000
SAUS45 KPIH 031152
MTRSNT
METAR KSNT 031151Z AUTO 32005KT M06/M13 A2979 RMK AO1 SLP073
T10611133 11028 21061 53019





000
SAUS45 KPIH 031152
MTRSNT
METAR KSNT 031151Z AUTO 32005KT M06/M13 A2979 RMK AO1 SLP073
T10611133 11028 21061 53019





000
SAUS45 KPIH 031052
MTRSNT
METAR KSNT 031051Z AUTO 32008KT M06/M13 A2975 RMK AO1 SLP059
T10561128





000
SAUS45 KPIH 031052
MTRSNT
METAR KSNT 031051Z AUTO 32008KT M06/M13 A2975 RMK AO1 SLP059
T10561128





000
SAUS45 KPIH 030952
MTRSNT
METAR KSNT 030951Z AUTO 32007KT M04/M09 A2973 RMK AO1 SLP051
T10441094





000
SAUS45 KPIH 030952
MTRSNT
METAR KSNT 030951Z AUTO 32007KT M04/M09 A2973 RMK AO1 SLP051
T10441094





000
SAUS45 KPIH 030852
MTRSNT
METAR KSNT 030851Z AUTO 32005KT M04/M09 A2972 RMK AO1 SLP047
T10441089 53007





000
SAUS45 KPIH 030852
MTRSNT
METAR KSNT 030851Z AUTO 32005KT M04/M09 A2972 RMK AO1 SLP047
T10441089 53007





000
SAUS45 KPIH 030752
MTRSNT
METAR KSNT 030751Z AUTO 00000KT M04/M08 A2970 RMK AO1 SLP046
T10391083





000
SAUS45 KPIH 030752
MTRSNT
METAR KSNT 030751Z AUTO 00000KT M04/M08 A2970 RMK AO1 SLP046
T10391083





000
SAUS45 KPIH 030652
MTRSNT
METAR KSNT 030651Z AUTO 02005KT M03/M08 A2970 RMK AO1 SLP048
T10281083 400281172





000
SAUS45 KPIH 030652
MTRSNT
METAR KSNT 030651Z AUTO 02005KT M03/M08 A2970 RMK AO1 SLP048
T10281083 400281172





000
SAUS45 KPIH 030552
MTRSNT
METAR KSNT 030551Z AUTO 32003KT M03/M09 A2969 RMK AO1 SLP059
T10281089 10022 21028 53009





000
SAUS45 KPIH 030552
MTRSNT
METAR KSNT 030551Z AUTO 32003KT M03/M09 A2969 RMK AO1 SLP059
T10281089 10022 21028 53009





000
SAUS45 KPIH 030452
MTRSNT
METAR KSNT 030451Z AUTO 33009KT M02/M10 A2968 RMK AO1 SLP054
T10221100





000
SAUS45 KPIH 030452
MTRSNT
METAR KSNT 030451Z AUTO 33009KT M02/M10 A2968 RMK AO1 SLP054
T10221100





000
SAUS45 KPIH 030352
MTRSNT
METAR KSNT 030351Z AUTO 29003KT M01/M09 A2966 RMK AO1 SLP057
T10111094





000
SAUS45 KPIH 030352
MTRSNT
METAR KSNT 030351Z AUTO 29003KT M01/M09 A2966 RMK AO1 SLP057
T10111094





000
SAUS45 KPIH 030252
MTRSNT
METAR KSNT 030251Z AUTO 34005KT M01/M09 A2966 RMK AO1 SLP068
T10111094 53006





000
SAUS45 KPIH 030152
MTRSNT
METAR KSNT 030151Z AUTO 33008KT 300V020 M01/M09 A2965 RMK AO1 SLP061
T10061094





000
SAUS45 KPIH 030152
MTRSNT
METAR KSNT 030151Z AUTO 33008KT 300V020 M01/M09 A2965 RMK AO1 SLP061
T10061094





000
SAUS45 KPIH 030052
MTRSNT
METAR KSNT 030051Z AUTO 32007KT 00/M09 A2964 RMK AO1 SLP052
T00001094





000
SAUS45 KPIH 030052
MTRSNT
METAR KSNT 030051Z AUTO 32007KT 00/M09 A2964 RMK AO1 SLP052
T00001094





000
SAUS45 KPIH 022352
MTRSNT
METAR KSNT 022351Z AUTO 34005KT 02/M11 A2964 RMK AO1 SLP045
T00221111 10028 21072 56013





000
SAUS45 KPIH 022352
MTRSNT
METAR KSNT 022351Z AUTO 34005KT 02/M11 A2964 RMK AO1 SLP045
T00221111 10028 21072 56013





000
SAUS45 KPIH 022252
MTRSNT
METAR KSNT 022251Z AUTO 31005KT 02/M10 A2965 RMK AO1 SLP050
T00171100





000
SAUS45 KPIH 022252
MTRSNT
METAR KSNT 022251Z AUTO 31005KT 02/M10 A2965 RMK AO1 SLP050
T00171100





000
SAUS45 KPIH 022152
MTRSNT
METAR KSNT 022151Z AUTO VRB04KT 02/M11 A2966 RMK AO1 SLP048
T00221111





000
SAUS45 KPIH 022152
MTRSNT
METAR KSNT 022151Z AUTO VRB04KT 02/M11 A2966 RMK AO1 SLP048
T00221111





000
SAUS45 KPIH 022052
MTRSNT
METAR KSNT 022051Z AUTO 35006KT 02/M10 A2968 RMK AO1 SLP056
T00221100 58028





000
SAUS45 KPIH 021952
MTRSNT
METAR KSNT 021951Z AUTO 33003KT M01/M11 A2972 RMK AO1 SLP069
T10061106





000
SAUS45 KPIH 021852
MTRSNT
METAR KSNT 021851Z AUTO 01004KT M03/M12 A2975 RMK AO1 SLP081
T10331122





000
SAUS45 KPIH 021852
MTRSNT
METAR KSNT 021851Z AUTO 01004KT M03/M12 A2975 RMK AO1 SLP081
T10331122





000
SAUS45 KPIH 021752
MTRSNT
METAR KSNT 021751Z AUTO 34005KT M07/M12 A2978 RMK AO1 SLP103
T10721122 11067 21172 58011





000
SAUS45 KPIH 021752
MTRSNT
METAR KSNT 021751Z AUTO 34005KT M07/M12 A2978 RMK AO1 SLP103
T10721122 11067 21172 58011





000
SAUS45 KPIH 021652
MTRSNT
METAR KSNT 021651Z AUTO 09005KT M08/M13 A2981 RMK AO1 SLP116
T10831133





000
SAUS45 KPIH 021652
MTRSNT
METAR KSNT 021651Z AUTO 09005KT M08/M13 A2981 RMK AO1 SLP116
T10831133





000
SAUS45 KPIH 021552
MTRSNT
METAR KSNT 021551Z AUTO 00000KT M12/M16 A2982 RMK AO1 SLP131
T11221161





000
SAUS45 KPIH 021452
MTRSNT
METAR KSNT 021451Z AUTO 00000KT M17/M20 A2982 RMK AO1 SLP138
T11721200 58010





000
SAUS45 KPIH 021352
MTRSNT
METAR KSNT 021351Z AUTO 00000KT M16/M19 A2984 RMK AO1 SLP136
T11611194





000
SAUS45 KPIH 021352
MTRSNT
METAR KSNT 021351Z AUTO 00000KT M16/M19 A2984 RMK AO1 SLP136
T11611194





000
SAUS45 KPIH 021252
MTRSNT
METAR KSNT 021251Z AUTO 00000KT M15/M18 A2985 RMK AO1 SLP130
T11501183





000
SAUS45 KPIH 021152
MTRSNT
METAR KSNT 021151Z AUTO 00000KT M14/M18 A2986 RMK AO1 SLP121
T11441178 11072 21156 56016





000
SAUS45 KPIH 021052
MTRSNT
METAR KSNT 021051Z AUTO 00000KT M14/M17 A2987 RMK AO1 SLP129
T11441172





000
SAUS45 KPIH 020952
MTRSNT
METAR KSNT 020951Z AUTO 00000KT M13/M16 A2990 RMK AO1 SLP133
T11281161





000
SAUS45 KPIH 020852
MTRSNT
METAR KSNT 020851Z AUTO 00000KT M12/M16 A2992 RMK AO1 SLP144
T11221156 56008





000
SAUS45 KPIH 020752
MTRSNT
METAR KSNT 020751Z AUTO 00000KT M10/M14 A2992 RMK AO1 SLP143
T11001139





000
SAUS45 KPIH 020652
MTRSNT
METAR KSNT 020651Z AUTO 13006KT M08/M13 A2993 RMK AO1 SLP151
T10781133 400281178





000
SAUS45 KPIH 020652
MTRSNT
METAR KSNT 020651Z AUTO 13006KT M08/M13 A2993 RMK AO1 SLP151
T10781133 400281178





000
SAUS45 KPIH 020552
MTRSNT
METAR KSNT 020551Z AUTO 15006KT M07/M13 A2995 RMK AO1 SLP163
T10721133 10028 21089 58001





000
SAUS45 KPIH 020452
MTRSNT
METAR KSNT 020451Z AUTO 13004KT M08/M13 A2995 RMK AO1 SLP174
T10781133





000
SAUS45 KPIH 020452
MTRSNT
METAR KSNT 020451Z AUTO 13004KT M08/M13 A2995 RMK AO1 SLP174
T10781133





000
SAUS45 KPIH 020352
MTRSNT
METAR KSNT 020351Z AUTO 13003KT M08/M13 A2995 RMK AO1 SLP179
T10781133





000
SAUS45 KPIH 020252
MTRSNT
METAR KSNT 020251Z AUTO VRB03KT M06/M12 A2995 RMK AO1 SLP186
T10561122 56007





000
SAUS45 KPIH 020152
MTRSNT
METAR KSNT 020151Z AUTO 13003KT M04/M12 A2995 RMK AO1 SLP181
T10441117





000
SAUS45 KPIH 020052
MTRSNT
METAR KSNT 020051Z AUTO 00000KT M01/M12 A2996 RMK AO1 SLP175
T10061117





000
SAUS45 KPIH 020052
MTRSNT
METAR KSNT 020051Z AUTO 00000KT M01/M12 A2996 RMK AO1 SLP175
T10061117





000
SAUS45 KPIH 012352
MTRSNT
METAR KSNT 012351Z AUTO 00000KT 03/M12 A2998 RMK AO1 SLP171
T00281122 10028 21083 56020





000
SAUS45 KPIH 012352
MTRSNT
METAR KSNT 012351Z AUTO 00000KT 03/M12 A2998 RMK AO1 SLP171
T00281122 10028 21083 56020





000
SAUS45 KPIH 012252
MTRSNT
METAR KSNT 012251Z AUTO 34004KT 02/M12 A3000 RMK AO1 SLP172
T00221117





000
SAUS45 KPIH 012152
MTRSNT
METAR KSNT 012151Z AUTO 35005KT 01/M12 A3002 RMK AO1 SLP182
T00111122





000
SAUS45 KPIH 012052
MTRSNT
METAR KSNT 012051Z AUTO 33005KT M01/M12 A3005 RMK AO1 SLP196
T10061122 58024





000
SAUS45 KPIH 011952
MTRSNT
METAR KSNT 011951Z AUTO 00000KT M01/M13 A3008 RMK AO1 SLP206
T10111133





000
SAUS45 KPIH 011852
MTRSNT
METAR KSNT 011851Z AUTO 33004KT M06/M14 A3012 RMK AO1 SLP223
T10561139





000
SAUS45 KPIH 011852
MTRSNT
METAR KSNT 011851Z AUTO 33004KT M06/M14 A3012 RMK AO1 SLP223
T10561139





000
SAUS45 KPIH 011752
MTRSNT
METAR KSNT 011751Z AUTO 34004KT M08/M15 A3013 RMK AO1 SLP227
T10831150 11083 21178 58001





000
SAUS45 KPIH 011752
MTRSNT
METAR KSNT 011751Z AUTO 34004KT M08/M15 A3013 RMK AO1 SLP227
T10831150 11083 21178 58001





000
SAUS45 KPIH 011652
MTRSNT
METAR KSNT 011651Z AUTO 33004KT M11/M16 A3015 RMK AO1 SLP236
T11111161





000
SAUS45 KPIH 011652
MTRSNT
METAR KSNT 011651Z AUTO 33004KT M11/M16 A3015 RMK AO1 SLP236
T11111161





000
SAUS45 KPIH 011552
MTRSNT
METAR KSNT 011551Z AUTO 09003KT M14/M18 A3015 RMK AO1 SLP238
T11391178





000
SAUS45 KPIH 011452
MTRSNT
METAR KSNT 011451Z AUTO 16003KT M18/M21 A3014 RMK AO1 SLP241
T11781211 51011





000
SAUS45 KPIH 011452
MTRSNT
METAR KSNT 011451Z AUTO 16003KT M18/M21 A3014 RMK AO1 SLP241
T11781211 51011





000
SAUS45 KPIH 011352
MTRSNT
METAR KSNT 011351Z AUTO 15003KT M17/M20 A3013 RMK AO1 SLP231
T11671200





000
SAUS45 KPIH 011252
MTRSNT
METAR KSNT 011251Z AUTO 17003KT M17/M21 A3012 RMK AO1 SLP227
T11721206





000
SAUS45 KPIH 011252
MTRSNT
METAR KSNT 011251Z AUTO 17003KT M17/M21 A3012 RMK AO1 SLP227
T11721206





000
SAUS45 KPIH 011152
MTRSNT
METAR KSNT 011151Z AUTO 18004KT M17/M21 A3010 RMK AO1 SLP218
T11721206 11061 21172 51008





000
SAUS45 KPIH 011052
MTRSNT
METAR KSNT 011051Z AUTO 17004KT M15/M18 A3009 RMK AO1 SLP207
T11501183





000
SAUS45 KPIH 010952
MTRSNT
METAR KSNT 010951Z AUTO 00000KT M14/M18 A3008 RMK AO1 SLP203
T11441178





000
SAUS45 KPIH 010952
MTRSNT
METAR KSNT 010951Z AUTO 00000KT M14/M18 A3008 RMK AO1 SLP203
T11441178





000
SAUS45 KPIH 010852
MTRSNT
METAR KSNT 010851Z AUTO 00000KT M14/M17 A3007 RMK AO1 SLP195
T11391167 53021





000
SAUS45 KPIH 010852
MTRSNT
METAR KSNT 010851Z AUTO 00000KT M14/M17 A3007 RMK AO1 SLP195
T11391167 53021





000
SAUS45 KPIH 010752
MTRSNT
METAR KSNT 010751Z AUTO 00000KT M12/M16 A3004 RMK AO1 SLP188
T11221156





000
SAUS45 KPIH 010752
MTRSNT
METAR KSNT 010751Z AUTO 00000KT M12/M16 A3004 RMK AO1 SLP188
T11221156





000
SAUS45 KPIH 010652
MTRSNT
METAR KSNT 010651Z AUTO 00000KT M09/M13 A3002 RMK AO1 SLP178
T10941133 400281133





000
SAUS45 KPIH 010652
MTRSNT
METAR KSNT 010651Z AUTO 00000KT M09/M13 A3002 RMK AO1 SLP178
T10941133 400281133





000
SAUS45 KPIH 010552
MTRSNT
METAR KSNT 010551Z AUTO VRB03KT M07/M12 A2999 RMK AO1 SLP168
T10671122 10011 21072 53026





000
SAUS45 KPIH 010552
MTRSNT
METAR KSNT 010551Z AUTO VRB03KT M07/M12 A2999 RMK AO1 SLP168
T10671122 10011 21072 53026





000
SAUS45 KPIH 010452
MTRSNT
METAR KSNT 010451Z AUTO 32005KT M05/M12 A2995 RMK AO1 SLP154
T10501117





    US Dept of Commerce
    National Oceanic and Atmospheric Administration
    National Weather Service
    1325 East West Highway
    Silver Spring, MD 20910
    Page Author: NWS Internet Services Team
Disclaimer
Information Quality
Credits
Glossary
Privacy Policy
Freedom of Information Act (FOIA)
About Us
Career Opportunities